Time;durP1;ratioP1;P1;durP2;ratioP2;P2;SDS_P1;SDS_P2;PMS_P1;PMS_P2;Temp;Humidity;BMP_temperature;BMP_pressure;BME280_temperature;BME280_humidity;BME280_pressure;Samples;Min_cycle;Max_cycle;Signal;HPM_P1;HPM_P2
2023/07/13 00:00:36;;;;;;;10.77;2.67;;;16.80;99.90;;;;;;5028273;28;20045;-84
2023/07/13 00:03:03;;;;;;;11.60;2.22;;;16.90;99.90;;;;;;5028523;28;20453;-84
2023/07/13 00:05:28;;;;;;;12.90;2.42;;;16.90;99.90;;;;;;5028490;28;20332;-84
2023/07/13 00:07:54;;;;;;;6.22;2.33;;;16.80;99.90;;;;;;5006806;28;20045;-83
2023/07/13 00:10:21;;;;;;;12.20;2.10;;;16.80;99.90;;;;;;5027966;28;20389;-83
2023/07/13 00:12:47;;;;;;;9.07;1.90;;;16.90;99.90;;;;;;5028464;28;20416;-83
2023/07/13 00:15:22;;;;;;;9.85;2.20;;;16.80;99.90;;;;;;5027710;28;20393;-84
2023/07/13 00:17:53;;;;;;;9.98;2.85;;;16.80;99.90;;;;;;5031015;28;20056;-83
2023/07/13 00:20:21;;;;;;;9.73;2.88;;;16.80;99.90;;;;;;5032352;28;20057;-84
2023/07/13 00:22:49;;;;;;;10.43;2.85;;;16.80;99.90;;;;;;5014179;28;20038;-83
2023/07/13 00:25:15;;;;;;;12.35;2.95;;;16.70;99.90;;;;;;5031886;28;20088;-83
2023/07/13 00:27:42;;;;;;;12.30;2.60;;;16.80;99.90;;;;;;5032555;28;20041;-84
2023/07/13 00:30:09;;;;;;;10.10;2.67;;;16.70;99.90;;;;;;5033044;28;20045;-84
2023/07/13 00:32:35;;;;;;;11.77;3.22;;;16.70;99.90;;;;;;5032296;28;20136;-84
2023/07/13 00:35:01;;;;;;;14.32;3.30;;;16.70;99.90;;;;;;5031636;28;20057;-83
2023/07/13 00:37:27;;;;;;;14.50;3.10;;;16.70;99.90;;;;;;5032018;28;20077;-83
2023/07/13 00:39:52;;;;;;;12.10;2.72;;;16.70;99.90;;;;;;5032210;28;20493;-84
2023/07/13 00:42:18;;;;;;;16.50;3.63;;;16.70;99.90;;;;;;5031506;28;20053;-83
2023/07/13 00:45:12;;;;;;;16.05;3.40;;;16.60;99.90;;;;;;5011415;28;20038;-83
2023/07/13 00:47:39;;;;;;;11.00;3.30;;;16.60;99.90;;;;;;5032299;28;20052;-84
2023/07/13 00:50:11;;;;;;;13.93;3.28;;;16.60;99.90;;;;;;5032774;28;20486;-83
2023/07/13 00:52:40;;;;;;;15.18;3.13;;;16.60;99.90;;;;;;5032465;28;20049;-84
2023/07/13 00:55:09;;;;;;;12.75;2.58;;;16.60;99.90;;;;;;5031988;28;20041;-83
2023/07/13 00:57:35;;;;;;;13.35;3.45;;;16.60;99.90;;;;;;5031215;28;20041;-83
2023/07/13 01:00:06;;;;;;;16.92;3.20;;;16.60;99.90;;;;;;5032596;28;20053;-84
2023/07/13 01:02:33;;;;;;;14.65;3.10;;;16.50;99.90;;;;;;5026162;28;20128;-84
2023/07/13 01:05:01;;;;;;;14.98;3.42;;;16.50;99.90;;;;;;5031786;28;20497;-84
2023/07/13 01:07:27;;;;;;;15.13;3.05;;;16.50;99.90;;;;;;5040952;28;20041;-83
2023/07/13 01:09:53;;;;;;;12.98;2.97;;;16.40;99.90;;;;;;5040005;28;20034;-83
2023/07/13 01:12:18;;;;;;;11.50;2.60;;;16.40;99.90;;;;;;5032235;28;20057;-83
2023/07/13 01:14:44;;;;;;;6.75;2.47;;;16.40;99.90;;;;;;5031551;28;20048;-83
2023/07/13 01:17:11;;;;;;;11.57;2.55;;;16.40;99.90;;;;;;5030427;28;20073;-84
2023/07/13 01:19:43;;;;;;;10.13;3.28;;;16.50;99.90;;;;;;5031936;28;20503;-84
2023/07/13 01:22:13;;;;;;;10.93;3.13;;;16.40;99.90;;;;;;4997525;28;20493;-84
2023/07/13 01:24:42;;;;;;;14.27;3.45;;;16.40;99.90;;;;;;5030997;28;20096;-84
2023/07/13 01:27:09;;;;;;;9.23;2.42;;;16.40;99.90;;;;;;5031305;28;20263;-84
2023/07/13 01:29:41;;;;;;;14.32;3.40;;;16.40;99.90;;;;;;5031276;28;20041;-84
2023/07/13 01:32:17;;;;;;;8.40;3.03;;;16.30;99.90;;;;;;5031475;28;20049;-84
2023/07/13 01:34:43;;;;;;;11.48;2.80;;;16.40;99.90;;;;;;5031043;28;20643;-83
2023/07/13 01:37:11;;;;;;;12.18;3.50;;;16.40;99.90;;;;;;5031217;28;20160;-83
2023/07/13 01:39:37;;;;;;;11.50;3.17;;;16.30;99.90;;;;;;5031167;28;20120;-84
2023/07/13 01:42:03;;;;;;;11.90;3.22;;;16.30;99.90;;;;;;5013006;28;20045;-83
2023/07/13 01:44:29;;;;;;;14.68;3.45;;;16.40;99.90;;;;;;5012974;28;20091;-84
2023/07/13 01:46:55;;;;;;;13.07;3.10;;;16.30;99.90;;;;;;5029882;28;20042;-83
2023/07/13 01:49:20;;;;;;;15.10;3.38;;;16.30;99.90;;;;;;5031196;28;20045;-83
2023/07/13 01:51:46;;;;;;;12.50;3.13;;;16.30;99.90;;;;;;5012958;28;20044;-83
2023/07/13 01:54:12;;;;;;;8.35;2.90;;;16.30;99.90;;;;;;5030201;28;20121;-83
2023/07/13 01:56:39;;;;;;;9.15;3.08;;;16.40;99.90;;;;;;5031367;28;20486;-83
2023/07/13 01:59:05;;;;;;;11.48;2.92;;;16.30;99.90;;;;;;5030938;28;20486;-84
2023/07/13 02:01:31;;;;;;;11.05;3.08;;;16.30;99.90;;;;;;5029713;28;20052;-83
2023/07/13 02:03:56;;;;;;;13.15;3.40;;;16.30;99.90;;;;;;5012483;28;20038;-84
2023/07/13 02:06:22;;;;;;;9.80;3.20;;;16.30;99.90;;;;;;5029820;28;20046;-83
2023/07/13 02:08:48;;;;;;;17.00;3.28;;;16.20;99.90;;;;;;5030829;28;20037;-84
2023/07/13 02:11:14;;;;;;;9.40;3.22;;;16.30;99.90;;;;;;5030918;28;20397;-84
2023/07/13 02:13:39;;;;;;;8.95;2.70;;;16.30;99.90;;;;;;5009304;28;20061;-84
2023/07/13 02:16:06;;;;;;;5.20;2.35;;;16.30;99.90;;;;;;5026023;28;20053;-84
2023/07/13 02:18:32;;;;;;;14.18;2.72;;;16.30;99.90;;;;;;5012504;28;20041;-84
2023/07/13 02:20:57;;;;;;;13.13;2.83;;;16.30;99.90;;;;;;5029647;28;20049;-83
2023/07/13 02:23:24;;;;;;;13.27;2.42;;;16.30;99.90;;;;;;5030120;28;20068;-83
2023/07/13 02:25:53;;;;;;;14.25;3.28;;;16.20;99.90;;;;;;5030148;28;20497;-83
2023/07/13 02:28:19;;;;;;;7.18;2.33;;;16.20;99.90;;;;;;5030034;28;20099;-83
2023/07/13 02:30:45;;;;;;;11.63;2.85;;;16.30;99.90;;;;;;5031032;28;20037;-83
2023/07/13 02:33:10;;;;;;;7.85;2.33;;;16.30;99.90;;;;;;5012172;28;20381;-83
2023/07/13 02:35:36;;;;;;;12.27;3.08;;;16.30;99.90;;;;;;5008617;28;20378;-83
2023/07/13 02:38:02;;;;;;;15.18;3.17;;;16.20;99.90;;;;;;5025402;28;20129;-83
2023/07/13 02:40:28;;;;;;;10.10;2.50;;;16.20;99.90;;;;;;5029855;28;20045;-83
2023/07/13 02:42:53;;;;;;;8.63;2.58;;;16.20;99.90;;;;;;5031048;28;20061;-83
2023/07/13 02:45:19;;;;;;;8.98;2.78;;;17.20;99.90;;;;;;5039817;28;20056;-83
2023/07/13 02:47:45;;;;;;;13.32;3.00;;;16.20;99.90;;;;;;5037569;28;20048;-84
2023/07/13 02:50:11;;;;;;;10.07;2.83;;;16.20;99.90;;;;;;5030646;28;20088;-84
2023/07/13 02:52:37;;;;;;;8.93;2.95;;;16.20;99.90;;;;;;5030237;28;20498;-83
2023/07/13 02:55:03;;;;;;;13.98;3.00;;;16.20;99.90;;;;;;5029783;28;20041;-83
2023/07/13 02:57:28;;;;;;;12.88;3.13;;;16.20;99.90;;;;;;5028955;28;20084;-83
2023/07/13 02:59:54;;;;;;;9.40;2.78;;;16.20;99.90;;;;;;5029586;28;20037;-84
2023/07/13 03:02:20;;;;;;;14.05;3.65;;;16.20;99.90;;;;;;5012248;28;20084;-83
2023/07/13 03:04:46;;;;;;;10.02;3.15;;;16.10;99.90;;;;;;5028738;28;20496;-83
2023/07/13 03:07:13;;;;;;;11.48;3.80;;;16.10;99.90;;;;;;5029285;28;20045;-83
2023/07/13 03:09:39;;;;;;;14.40;3.47;;;16.10;99.90;;;;;;5029368;28;20116;-83
2023/07/13 03:12:06;;;;;;;15.32;4.00;;;16.10;99.90;;;;;;5029548;28;20055;-83
2023/07/13 03:14:32;;;;;;;10.35;2.63;;;16.10;99.90;;;;;;5029172;28;20313;-83
2023/07/13 03:16:57;;;;;;;15.88;4.22;;;16.10;99.90;;;;;;5032594;28;20079;-83
2023/07/13 03:19:23;;;;;;;13.05;3.70;;;16.10;99.90;;;;;;5029627;28;20409;-84
2023/07/13 03:21:49;;;;;;;13.68;3.58;;;16.00;99.90;;;;;;5029065;28;20049;-83
2023/07/13 03:24:15;;;;;;;15.95;3.67;;;16.00;99.90;;;;;;5027964;28;20054;-83
2023/07/13 03:26:40;;;;;;;13.93;4.18;;;16.10;99.90;;;;;;5029243;28;20056;-83
2023/07/13 03:29:06;;;;;;;15.15;3.58;;;16.00;99.90;;;;;;5029280;28;20033;-83
2023/07/13 03:31:34;;;;;;;14.23;3.55;;;15.90;99.90;;;;;;5028584;28;20053;-83
2023/07/13 03:34:00;;;;;;;12.48;3.45;;;16.10;99.90;;;;;;5022852;28;20053;-83
2023/07/13 03:36:31;;;;;;;11.75;3.53;;;16.00;99.90;;;;;;5029083;28;20051;-83
2023/07/13 03:38:59;;;;;;;13.80;3.78;;;16.00;99.90;;;;;;5028296;28;20029;-83
2023/07/13 03:41:25;;;;;;;15.00;3.25;;;16.00;99.90;;;;;;5011279;28;20410;-83
2023/07/13 03:43:52;;;;;;;11.95;3.15;;;15.90;99.90;;;;;;5011169;28;20128;-83
2023/07/13 03:46:18;;;;;;;9.82;2.88;;;16.00;99.90;;;;;;5010447;28;20441;-84
2023/07/13 03:48:45;;;;;;;10.85;2.78;;;16.00;99.90;;;;;;5008015;28;20113;-83
2023/07/13 03:51:14;;;;;;;14.77;3.70;;;16.00;99.90;;;;;;5026929;28;20053;-83
2023/07/13 03:53:41;;;;;;;11.48;3.65;;;16.00;99.90;;;;;;5028274;28;20463;-83
2023/07/13 03:56:08;;;;;;;10.80;3.70;;;16.00;99.90;;;;;;5010998;28;20044;-83
2023/07/13 03:58:36;;;;;;;17.35;3.50;;;16.00;99.90;;;;;;5028870;28;20045;-83
2023/07/13 04:01:03;;;;;;;10.68;3.28;;;16.00;99.90;;;;;;5028379;28;20496;-83
2023/07/13 04:03:32;;;;;;;11.82;3.00;;;16.00;99.90;;;;;;5028193;28;20622;-84
2023/07/13 04:06:03;;;;;;;14.68;3.70;;;16.00;99.90;;;;;;5006678;28;20046;-83
2023/07/13 04:08:30;;;;;;;13.80;3.40;;;16.00;99.90;;;;;;5008883;28;20045;-83
2023/07/13 04:10:57;;;;;;;12.52;3.97;;;16.00;99.90;;;;;;5028763;28;20068;-83
2023/07/13 04:13:24;;;;;;;14.15;3.47;;;16.00;99.90;;;;;;5028113;28;20042;-83
2023/07/13 04:15:50;;;;;;;16.65;3.83;;;16.00;99.90;;;;;;5008961;28;20038;-83
2023/07/13 04:18:16;;;;;;;20.73;4.03;;;16.10;99.90;;;;;;5027876;28;20041;-83
2023/07/13 04:20:45;;;;;;;13.80;3.03;;;16.10;99.90;;;;;;5012651;28;20093;-84
2023/07/13 04:23:11;;;;;;;15.73;3.47;;;16.10;99.90;;;;;;5017992;28;20064;-83
2023/07/13 04:25:37;;;;;;;15.93;3.47;;;16.10;99.90;;;;;;5016597;28;20038;-84
2023/07/13 04:28:04;;;;;;;12.65;3.90;;;16.10;99.90;;;;;;5027446;28;20136;-84
2023/07/13 04:30:30;;;;;;;17.38;4.00;;;16.10;99.90;;;;;;5027192;28;20439;-84
2023/07/13 04:32:55;;;;;;;11.18;3.25;;;16.10;99.90;;;;;;5029080;28;20068;-84
2023/07/13 04:35:22;;;;;;;13.55;3.38;;;16.10;99.90;;;;;;5008158;28;20049;-83
2023/07/13 04:37:50;;;;;;;13.65;3.38;;;16.10;99.90;;;;;;5028032;28;20124;-84
2023/07/13 04:40:19;;;;;;;12.77;3.45;;;14.90;99.90;;;;;;5028544;28;20048;-84
2023/07/13 04:42:46;;;;;;;16.17;3.47;;;16.10;99.90;;;;;;4993153;28;20046;-83
2023/07/13 04:45:13;;;;;;;12.07;3.35;;;16.10;99.90;;;;;;5027992;28;20610;-84
2023/07/13 04:47:39;;;;;;;17.13;4.05;;;16.20;99.90;;;;;;5020481;28;20041;-84
2023/07/13 04:50:06;;;;;;;18.17;4.63;;;16.20;99.90;;;;;;5028641;28;20038;-84
2023/07/13 04:52:32;;;;;;;14.65;3.55;;;16.20;99.90;;;;;;5028269;28;20301;-84
2023/07/13 04:54:59;;;;;;;11.70;3.22;;;16.20;99.90;;;;;;5027875;28;20057;-84
2023/07/13 04:57:25;;;;;;;13.98;3.78;;;16.30;99.90;;;;;;5028217;28;20041;-83
2023/07/13 04:59:51;;;;;;;18.90;3.90;;;16.20;99.90;;;;;;5028586;28;20068;-84
2023/07/13 05:02:17;;;;;;;21.02;3.95;;;16.20;99.90;;;;;;5027988;28;20077;-84
2023/07/13 05:04:47;;;;;;;12.55;3.33;;;16.30;99.90;;;;;;5013479;28;20512;-85
2023/07/13 05:07:13;;;;;;;15.45;3.40;;;16.30;99.90;;;;;;5032099;28;20052;-84
2023/07/13 05:09:39;;;;;;;11.48;3.65;;;16.30;99.90;;;;;;5031664;28;20440;-84
2023/07/13 05:12:07;;;;;;;18.30;4.15;;;16.30;99.90;;;;;;5031944;28;20400;-84
2023/07/13 05:14:32;;;;;;;15.88;4.15;;;16.30;99.90;;;;;;5031885;28;20444;-84
2023/07/13 05:16:58;;;;;;;13.70;3.78;;;16.30;99.90;;;;;;5030840;28;20076;-84
2023/07/13 05:19:24;;;;;;;13.63;3.63;;;16.30;99.90;;;;;;5031911;28;20048;-84
2023/07/13 05:21:50;;;;;;;16.65;4.03;;;16.30;99.90;;;;;;5013658;28;20500;-84
2023/07/13 05:24:15;;;;;;;15.55;3.72;;;16.30;99.90;;;;;;5031227;28;20124;-84
2023/07/13 05:26:41;;;;;;;12.82;3.53;;;16.30;99.90;;;;;;5031636;28;20053;-84
2023/07/13 05:29:07;;;;;;;12.30;3.80;;;16.30;99.90;;;;;;5032218;28;20498;-84
2023/07/13 05:31:32;;;;;;;14.25;3.90;;;16.40;99.90;;;;;;5030915;28;20037;-84
2023/07/13 05:33:58;;;;;;;13.60;3.35;;;16.40;99.90;;;;;;5031516;28;20079;-84
2023/07/13 05:36:24;;;;;;;14.30;3.85;;;16.40;99.90;;;;;;4993866;28;20168;-84
2023/07/13 05:38:50;;;;;;;11.90;3.00;;;16.50;99.90;;;;;;5030340;28;20477;-84
2023/07/13 05:41:15;;;;;;;12.77;3.38;;;16.50;99.90;;;;;;5032151;28;20049;-85
2023/07/13 05:43:41;;;;;;;11.35;3.17;;;16.50;99.90;;;;;;5036726;28;20351;-84
2023/07/13 05:46:07;;;;;;;13.77;3.28;;;16.50;99.90;;;;;;5015726;28;20045;-84
2023/07/13 05:48:33;;;;;;;16.38;3.72;;;16.60;99.90;;;;;;5034543;28;20099;-83
2023/07/13 05:50:58;;;;;;;14.93;3.70;;;16.60;99.90;;;;;;5013018;28;20034;-84
2023/07/13 05:53:24;;;;;;;9.13;2.90;;;16.70;99.90;;;;;;5014013;28;20038;-85
2023/07/13 05:55:50;;;;;;;15.05;2.97;;;16.70;99.90;;;;;;5030531;28;20555;-85
2023/07/13 05:58:19;;;;;;;11.90;2.95;;;16.80;99.90;;;;;;5031692;28;20045;-84
2023/07/13 06:00:48;;;;;;;14.68;4.35;;;16.80;99.90;;;;;;5037256;28;20100;-84
2023/07/13 06:03:15;;;;;;;16.65;3.95;;;16.80;99.90;;;;;;5043668;28;20037;-82
2023/07/13 06:05:41;;;;;;;15.23;3.65;;;16.90;99.90;;;;;;5036283;28;20045;-83
2023/07/13 06:08:08;;;;;;;8.48;2.65;;;16.90;99.90;;;;;;5033144;28;20053;-82
2023/07/13 06:10:35;;;;;;;11.30;2.65;;;16.90;99.90;;;;;;5012933;28;20559;-83
2023/07/13 06:13:01;;;;;;;8.00;2.78;;;17.00;99.90;;;;;;5030041;28;20057;-83
2023/07/13 06:15:27;;;;;;;10.05;2.85;;;17.00;99.90;;;;;;5012556;28;20037;-83
2023/07/13 06:17:52;;;;;;;13.48;3.15;;;17.10;99.90;;;;;;5012991;28;20042;-83
2023/07/13 06:20:18;;;;;;;10.68;3.10;;;18.40;99.90;;;;;;5031219;28;20058;-84
2023/07/13 06:22:45;;;;;;;12.48;3.55;;;17.20;99.90;;;;;;5022498;28;20072;-83
2023/07/13 06:25:10;;;;;;;14.65;2.97;;;17.20;99.90;;;;;;5029881;28;20112;-88
2023/07/13 06:27:36;;;;;;;14.55;2.50;;;17.30;99.90;;;;;;5022290;28;20129;-87
2023/07/13 06:30:02;;;;;;;10.65;2.83;;;17.30;99.90;;;;;;5030654;28;20461;-88
2023/07/13 06:32:28;;;;;;;17.33;3.08;;;17.40;99.90;;;;;;4330948;28;10000656;-86
2023/07/13 06:34:54;;;;;;;10.93;2.25;;;17.40;99.90;;;;;;5031935;28;20042;-90
2023/07/13 06:37:20;;;;;;;9.93;2.65;;;17.40;99.90;;;;;;5034461;28;20099;-89
2023/07/13 06:39:45;;;;;;;10.07;2.70;;;17.50;99.90;;;;;;5030393;28;20045;-85
2023/07/13 06:42:11;;;;;;;14.20;2.85;;;17.50;99.90;;;;;;5022034;28;20041;-81
2023/07/13 06:44:37;;;;;;;13.50;3.75;;;17.50;99.90;;;;;;5028467;28;20484;-80
2023/07/13 06:47:03;;;;;;;10.70;2.80;;;17.50;99.90;;;;;;5024924;28;20117;-80
2023/07/13 06:49:28;;;;;;;10.73;3.10;;;17.60;99.90;;;;;;5023565;28;20420;-79
2023/07/13 06:51:54;;;;;;;14.15;2.03;;;17.70;99.90;;;;;;5030025;28;20029;-82
2023/07/13 06:54:20;;;;;;;14.32;2.47;;;17.70;99.90;;;;;;4995639;28;20037;-80
2023/07/13 06:56:46;;;;;;;11.50;2.40;;;17.80;99.90;;;;;;5032433;28;20116;-82
2023/07/13 06:59:11;;;;;;;10.00;2.00;;;17.90;99.90;;;;;;5029781;28;20044;-78
2023/07/13 07:01:37;;;;;;;8.00;2.25;;;18.00;99.90;;;;;;5029580;28;20034;-82
2023/07/13 07:04:03;;;;;;;10.15;2.25;;;17.90;99.90;;;;;;5009844;28;20042;-85
2023/07/13 07:06:29;;;;;;;11.55;2.08;;;18.00;99.90;;;;;;5029260;28;20105;-80
2023/07/13 07:08:55;;;;;;;10.27;2.30;;;17.80;99.90;;;;;;5029122;28;20310;-83
2023/07/13 07:11:24;;;;;;;10.60;2.47;;;17.90;99.90;;;;;;5008300;28;20425;-86
2023/07/13 07:13:52;;;;;;;11.43;2.25;;;17.80;99.90;;;;;;5026216;28;20144;-85
2023/07/13 07:16:18;;;;;;;8.93;1.95;;;17.70;99.90;;;;;;5029360;28;20037;-86
2023/07/13 07:18:44;;;;;;;7.97;2.33;;;17.70;99.90;;;;;;5029593;28;20049;-84
2023/07/13 07:21:10;;;;;;;10.25;2.15;;;17.70;99.90;;;;;;5030764;28;20512;-83
2023/07/13 07:23:36;;;;;;;7.60;1.80;;;17.70;99.90;;;;;;5030185;28;20069;-87
2023/07/13 07:26:02;;;;;;;13.25;2.28;;;17.70;99.90;;;;;;5029745;28;20048;-80
2023/07/13 07:28:30;;;;;;;9.00;2.30;;;17.60;99.90;;;;;;5030355;28;20456;-84
2023/07/13 07:30:57;;;;;;;8.00;2.00;;;17.70;99.90;;;;;;5009538;28;20038;-85
2023/07/13 07:33:24;;;;;;;7.22;2.42;;;17.70;99.90;;;;;;5026144;28;20037;-80
2023/07/13 07:35:50;;;;;;;7.57;1.65;;;17.70;99.90;;;;;;5031389;28;20045;-78
2023/07/13 07:38:16;;;;;;;8.68;2.00;;;17.60;99.90;;;;;;5014791;28;20057;-82
2023/07/13 07:40:42;;;;;;;7.93;2.10;;;17.60;99.90;;;;;;5036535;28;20071;-81
2023/07/13 07:43:10;;;;;;;8.35;2.05;;;17.50;99.90;;;;;;5040365;28;20054;-84
2023/07/13 07:45:37;;;;;;;3.92;1.20;;;17.50;99.90;;;;;;5023405;28;20481;-81
2023/07/13 07:48:04;;;;;;;4.80;1.52;;;17.50;99.90;;;;;;5029415;28;20048;-81
2023/07/13 07:50:30;;;;;;;5.95;2.22;;;17.40;99.90;;;;;;5028935;28;20524;-81
2023/07/13 07:52:56;;;;;;;4.25;1.42;;;17.30;99.90;;;;;;5032145;28;20045;-81
2023/07/13 07:55:22;;;;;;;3.97;0.95;;;17.20;99.90;;;;;;5028517;28;20541;-83
2023/07/13 07:57:48;;;;;;;1.85;1.02;;;17.10;99.90;;;;;;5011104;28;20045;-79
2023/07/13 08:00:15;;;;;;;3.42;0.82;;;17.00;99.90;;;;;;5028693;28;20069;-82
2023/07/13 08:02:41;;;;;;;3.72;1.02;;;16.90;99.90;;;;;;5028959;28;20477;-81
2023/07/13 08:05:08;;;;;;;4.43;1.13;;;16.90;99.90;;;;;;5027689;28;20125;-80
2023/07/13 08:07:34;;;;;;;4.72;1.33;;;16.90;99.90;;;;;;5029456;28;20060;-82
2023/07/13 08:10:00;;;;;;;3.03;1.40;;;16.90;99.90;;;;;;5028520;28;20037;-80
2023/07/13 08:12:25;;;;;;;4.30;1.67;;;16.90;99.90;;;;;;5007851;28;20064;-80
2023/07/13 08:14:57;;;;;;;4.03;1.70;;;17.00;99.90;;;;;;5024116;28;20159;-80
2023/07/13 08:17:24;;;;;;;4.72;1.45;;;17.10;99.90;;;;;;5029522;28;20114;-80
2023/07/13 08:19:51;;;;;;;5.40;1.58;;;17.20;99.90;;;;;;5008163;28;20049;-81
2023/07/13 08:22:16;;;;;;;7.53;1.85;;;17.30;99.90;;;;;;5029788;28;20037;-81
2023/07/13 08:24:43;;;;;;;5.85;1.50;;;17.40;99.90;;;;;;5008484;28;20064;-80
2023/07/13 08:27:11;;;;;;;4.22;1.58;;;17.50;99.90;;;;;;5024119;28;20099;-82
2023/07/13 08:29:37;;;;;;;8.40;1.33;;;17.70;99.90;;;;;;5023561;28;20040;-82
2023/07/13 08:32:05;;;;;;;4.30;1.48;;;17.80;99.90;;;;;;5030591;28;20120;-83
2023/07/13 08:34:31;;;;;;;5.75;1.20;;;17.90;99.90;;;;;;5030516;28;20561;-83
2023/07/13 08:36:57;;;;;;;5.72;1.40;;;18.00;99.90;;;;;;5014239;28;20022;-83
2023/07/13 08:39:22;;;;;;;4.82;1.15;;;18.10;99.90;;;;;;5033176;28;20025;-82
2023/07/13 08:41:56;;;;;;;5.47;1.10;;;18.10;99.90;;;;;;5032925;28;20037;-82
2023/07/13 08:44:37;;;;;;;3.22;0.90;;;18.10;99.90;;;;;;5006739;28;20064;-83
2023/07/13 08:47:03;;;;;;;3.85;1.33;;;18.30;99.90;;;;;;5032870;28;20113;-82
2023/07/13 08:49:30;;;;;;;4.78;1.25;;;18.40;99.90;;;;;;5032773;28;20045;-83
2023/07/13 08:52:10;;;;;;;8.68;1.50;;;18.60;99.90;;;;;;5032878;28;20199;-83
2023/07/13 08:54:55;;;;;;;3.95;1.42;;;18.60;99.90;;;;;;5026501;28;20042;-83
2023/07/13 08:57:30;;;;;;;7.78;1.33;;;18.60;99.90;;;;;;5033442;28;20612;-82
2023/07/13 08:59:55;;;;;;;3.63;1.17;;;18.60;99.90;;;;;;5013021;28;20081;-84
2023/07/13 09:02:41;;;;;;;6.25;1.30;;;18.60;99.90;;;;;;5032226;28;20135;-82
2023/07/13 09:05:13;;;;;;;6.78;1.48;;;18.70;99.90;;;;;;5016056;28;20055;-83
2023/07/13 09:08:06;;;;;;;4.90;1.30;;;18.70;99.90;;;;;;5012113;28;20046;-84
2023/07/13 09:10:43;;;;;;;4.40;1.10;;;18.80;99.90;;;;;;5025256;28;20483;-84
2023/07/13 09:13:33;;;;;;;4.53;1.45;;;18.90;99.90;;;;;;5015392;28;20049;-82
2023/07/13 09:16:00;;;;;;;3.85;1.10;;;18.80;99.90;;;;;;5038975;28;20052;-83
2023/07/13 09:18:46;;;;;;;5.32;1.40;;;18.80;99.90;;;;;;5040370;28;20053;-83
2023/07/13 09:21:30;;;;;;;5.70;1.33;;;18.80;99.90;;;;;;5034229;28;20065;-84
2023/07/13 09:24:21;;;;;;;4.43;1.25;;;18.80;99.90;;;;;;5023737;28;20095;-82
2023/07/13 09:26:48;;;;;;;7.50;1.70;;;18.80;99.90;;;;;;5024711;28;20041;-84
2023/07/13 09:29:26;;;;;;;5.07;1.55;;;18.70;99.90;;;;;;5014524;28;20501;-83
2023/07/13 09:31:58;;;;;;;6.03;1.40;;;18.80;99.90;;;;;;5011443;28;20430;-84
2023/07/13 09:34:25;;;;;;;5.00;1.65;;;18.80;99.90;;;;;;5030884;28;20064;-85
2023/07/13 09:36:51;;;;;;;6.68;4.30;;;18.90;99.90;;;;;;5030454;28;20945;-85
2023/07/13 09:39:38;;;;;;;3.28;1.50;;;18.90;99.90;;;;;;5027770;28;20081;-85
2023/07/13 09:42:12;;;;;;;6.63;1.30;;;19.00;99.90;;;;;;5028034;28;20116;-85
2023/07/13 09:44:52;;;;;;;7.38;1.35;;;19.00;99.90;;;;;;5029053;28;20037;-81
2023/07/13 09:47:24;;;;;;;2.95;1.23;;;19.10;99.90;;;;;;5026301;28;20503;-83
2023/07/13 09:50:00;;;;;;;11.23;5.60;;;19.20;99.90;;;;;;5029180;28;20416;-83
2023/07/13 09:52:28;;;;;;;3.22;1.15;;;19.20;99.90;;;;;;5029338;28;20103;-83
2023/07/13 09:55:01;;;;;;;2.78;1.20;;;19.30;99.90;;;;;;5029887;28;20869;-84
2023/07/13 09:57:27;;;;;;;6.00;1.43;;;19.40;99.90;;;;;;5011448;28;20041;-82
2023/07/13 09:59:56;;;;;;;4.57;1.40;;;19.50;99.90;;;;;;5025564;28;20042;-81
2023/07/13 10:02:35;;;;;;;4.20;1.23;;;19.50;99.90;;;;;;5028967;28;20061;-79
2023/07/13 10:05:07;;;;;;;4.57;0.60;;;19.60;99.90;;;;;;5012036;28;20436;-80
2023/07/13 10:07:39;;;;;;;4.38;0.98;;;19.70;99.90;;;;;;5011262;28;20650;-80
2023/07/13 10:10:17;;;;;;;3.33;1.20;;;19.70;99.90;;;;;;5027990;28;20046;-79
2023/07/13 10:12:44;;;;;;;3.15;1.10;;;19.70;99.90;;;;;;5020431;28;20133;-81
2023/07/13 10:15:30;;;;;;;3.42;1.00;;;19.70;99.90;;;;;;5014814;28;20107;-82
2023/07/13 10:17:57;;;;;;;2.05;0.85;;;19.70;99.90;;;;;;5027263;28;20501;-83
2023/07/13 10:20:25;;;;;;;4.68;0.90;;;19.70;99.90;;;;;;5011304;28;20136;-83
2023/07/13 10:23:00;;;;;;;4.70;1.08;;;19.70;99.90;;;;;;5012825;28;20047;-88
2023/07/13 10:25:32;;;;;;;1.42;0.80;;;19.70;99.90;;;;;;5011610;28;20049;-80
2023/07/13 10:28:23;;;;;;;3.00;0.75;;;19.80;99.90;;;;;;5028236;28;20505;-81
2023/07/13 10:30:49;;;;;;;5.38;0.70;;;19.90;99.90;;;;;;5028088;28;20091;-80
2023/07/13 10:33:15;;;;;;;2.40;0.90;;;20.00;99.90;;;;;;5009547;28;20042;-81
2023/07/13 10:35:44;;;;;;;2.25;0.65;;;20.10;99.90;;;;;;5028775;28;20037;-80
2023/07/13 10:38:22;;;;;;;8.75;0.90;;;20.10;99.90;;;;;;5023309;28;20090;-81
2023/07/13 10:40:54;;;;;;;3.15;0.60;;;20.10;99.90;;;;;;5027496;28;20136;-81
2023/07/13 10:43:23;;;;;;;2.15;0.70;;;20.00;99.90;;;;;;5030455;28;20045;-80
2023/07/13 10:45:51;;;;;;;2.90;0.60;;;19.90;99.90;;;;;;5012817;28;20041;-81
2023/07/13 10:48:19;;;;;;;1.38;0.55;;;19.90;99.90;;;;;;5020249;28;20081;-79
2023/07/13 10:50:47;;;;;;;3.80;0.60;;;19.80;99.90;;;;;;5026128;28;20072;-80
2023/07/13 10:53:27;;;;;;;4.00;1.27;;;19.70;99.90;;;;;;5034156;28;20041;-79
2023/07/13 10:55:53;;;;;;;3.40;0.50;;;19.80;99.90;;;;;;5036129;28;20037;-80
2023/07/13 10:58:42;;;;;;;4.22;0.77;;;19.90;99.90;;;;;;5031242;28;20092;-81
2023/07/13 11:01:10;;;;;;;10.13;0.77;;;20.10;99.90;;;;;;5022398;28;20405;-81
2023/07/13 11:03:43;;;;;;;1.63;0.50;;;20.30;99.90;;;;;;5027019;28;20045;-80
2023/07/13 11:06:12;;;;;;;3.03;0.60;;;20.40;99.90;;;;;;5029810;28;20045;-80
2023/07/13 11:08:52;;;;;;;3.95;0.93;;;20.50;99.90;;;;;;5010781;28;20060;-79
2023/07/13 11:11:34;;;;;;;6.25;0.65;;;20.50;99.90;;;;;;5028682;28;20041;-80
2023/07/13 11:14:04;;;;;;;4.28;0.93;;;20.60;99.90;;;;;;5023527;28;20049;-80
2023/07/13 11:16:46;;;;;;;1.95;0.60;;;20.70;99.90;;;;;;5021033;28;20046;-81
2023/07/13 11:19:17;;;;;;;3.22;0.98;;;20.80;99.90;;;;;;5030223;28;20059;-79
2023/07/13 11:22:04;;;;;;;2.70;0.90;;;20.80;99.90;;;;;;5028901;28;20132;-80
2023/07/13 11:24:51;;;;;;;3.25;0.90;;;20.80;99.90;;;;;;5028823;28;20081;-80
2023/07/13 11:27:37;;;;;;;6.82;1.10;;;20.70;99.90;;;;;;5029873;28;20053;-89
2023/07/13 11:30:32;;;;;;;4.18;0.82;;;20.70;99.90;;;;;;5022154;28;20076;-87
2023/07/13 11:33:06;;;;;;;2.72;0.77;;;20.90;99.90;;;;;;4993408;28;20065;-82
2023/07/13 11:35:36;;;;;;;3.13;0.80;;;21.00;99.90;;;;;;5010681;28;20060;-82
2023/07/13 11:38:02;;;;;;;3.30;0.80;;;21.00;99.90;;;;;;5011001;28;20576;-80
2023/07/13 11:40:30;;;;;;;4.78;1.05;;;21.00;99.90;;;;;;5028669;28;20037;-82
2023/07/13 11:43:02;;;;;;;4.75;0.80;;;20.90;99.90;;;;;;5026288;28;20080;-82
2023/07/13 11:45:28;;;;;;;3.03;0.73;;;21.00;99.90;;;;;;5029104;28;20095;-81
2023/07/13 11:47:56;;;;;;;4.15;0.98;;;21.10;99.90;;;;;;5031301;28;20073;-81
2023/07/13 11:50:24;;;;;;;4.85;1.70;;;21.30;99.90;;;;;;5028829;28;20033;-81
2023/07/13 11:52:53;;;;;;;4.95;0.88;;;21.40;99.90;;;;;;5014203;28;20084;-81
2023/07/13 11:55:21;;;;;;;4.35;0.80;;;21.40;99.90;;;;;;5030729;28;20429;-80
2023/07/13 11:57:54;;;;;;;4.13;1.42;;;21.50;99.90;;;;;;5028279;28;20076;-81
2023/07/13 12:00:28;;;;;;;2.50;0.80;;;21.50;99.90;;;;;;5029978;28;20081;-80
2023/07/13 12:02:56;;;;;;;5.57;0.98;;;21.40;99.60;;;;;;5029600;28;20045;-81
2023/07/13 12:05:22;;;;;;;3.97;1.02;;;21.50;99.90;;;;;;5029527;28;20436;-82
2023/07/13 12:07:49;;;;;;;5.63;1.00;;;21.50;99.80;;;;;;5012452;28;20493;-81
2023/07/13 12:10:29;;;;;;;6.63;1.35;;;21.30;99.70;;;;;;5031109;28;20041;-81
2023/07/13 12:12:58;;;;;;;3.65;0.93;;;21.20;99.60;;;;;;5022795;28;20057;-81
2023/07/13 12:15:39;;;;;;;3.70;0.98;;;21.20;99.90;;;;;;5033909;28;20059;-82
2023/07/13 12:18:15;;;;;;;2.72;0.70;;;21.30;99.90;;;;;;5028042;28;20041;-82
2023/07/13 12:20:41;;;;;;;6.15;0.80;;;21.40;99.70;;;;;;5019413;28;20145;-82
2023/07/13 12:23:32;;;;;;;2.70;0.57;;;21.50;99.20;;;;;;5091061;22;20517;-82
2023/07/13 12:26:01;;;;;;;4.35;1.05;;;21.70;98.90;;;;;;5025367;28;20057;-83
2023/07/13 12:28:43;;;;;;;4.60;0.75;;;21.70;98.00;;;;;;5031191;28;20093;-82
2023/07/13 12:31:29;;;;;;;5.22;1.10;;;21.80;98.00;;;;;;5034244;28;20071;-83
2023/07/13 12:34:11;;;;;;;6.65;1.00;;;22.00;98.30;;;;;;5035279;28;20048;-82
2023/07/13 12:36:40;;;;;;;3.60;0.50;;;22.10;97.80;;;;;;5027472;28;20087;-83
2023/07/13 12:39:21;;;;;;;3.05;0.88;;;22.20;98.40;;;;;;5012934;28;20057;-82
2023/07/13 12:41:48;;;;;;;3.83;0.82;;;22.30;98.60;;;;;;5030115;28;20033;-83
2023/07/13 12:44:25;;;;;;;4.50;0.80;;;22.20;97.10;;;;;;5028613;28;20041;-82
2023/07/13 12:47:20;;;;;;;5.45;0.80;;;22.10;97.50;;;;;;5031122;28;20037;-82
2023/07/13 12:50:06;;;;;;;;;;;21.70;97.30;;;;;;5004014;28;20058;-81
2023/07/13 12:52:35;;;;;;;2.72;0.90;;;21.50;98.20;;;;;;5024166;28;20089;-82